Time;durP1;ratioP1;P1;durP2;ratioP2;P2;SDS_P1;SDS_P2;PMS_P1;PMS_P2;Temp;Humidity;BMP_temperature;BMP_pressure;BME280_temperature;BME280_humidity;BME280_pressure;Samples;Min_cycle;Max_cycle;Signal;HPM_P1;HPM_P2
2022/08/01 00:00:39;;;;;;;2.62;1.00;;;27.60;76.10;;;;;;1910712;75;21201;-72
2022/08/01 00:03:39;;;;;;;2.47;0.93;;;27.40;76.20;;;;;;1898567;75;21207;-72
2022/08/01 00:06:34;;;;;;;3.12;1.20;;;27.30;75.80;;;;;;1894796;75;21095;-72
2022/08/01 00:09:25;;;;;;;2.22;1.17;;;27.40;76.00;;;;;;1902239;75;21059;-72
2022/08/01 00:12:18;;;;;;;1.90;0.93;;;27.40;76.20;;;;;;1886441;75;21102;-72
2022/08/01 00:15:12;;;;;;;3.42;1.10;;;27.30;76.80;;;;;;1898771;75;21051;-72
2022/08/01 00:18:04;;;;;;;2.87;1.12;;;27.20;78.00;;;;;;1885742;75;21120;-72
2022/08/01 00:20:55;;;;;;;1.37;1.10;;;26.80;78.80;;;;;;1879739;75;21068;-72
2022/08/01 00:23:48;;;;;;;1.20;1.00;;;26.50;80.10;;;;;;1874372;75;21101;-73
2022/08/01 00:26:39;;;;;;;1.35;1.17;;;26.40;80.20;;;;;;1879262;75;21121;-73
2022/08/01 00:34:58;;;;;;;1.87;1.00;;;26.00;82.30;;;;;;1953912;72;22353;-72
2022/08/01 00:37:49;;;;;;;1.30;0.95;;;25.90;83.00;;;;;;1929108;73;21102;-72
2022/08/01 00:40:40;;;;;;;1.10;1.00;;;25.90;83.10;;;;;;1917669;75;21071;-72
2022/08/01 00:43:31;;;;;;;2.15;1.20;;;25.90;83.80;;;;;;1925703;73;21405;-72
2022/08/01 00:46:22;;;;;;;1.22;0.93;;;25.70;84.40;;;;;;1927257;73;21067;-72
2022/08/01 00:49:13;;;;;;;2.55;1.00;;;25.70;84.00;;;;;;1918059;73;21109;-72
2022/08/01 00:54:43;;;;;;;2.42;1.10;;;25.60;84.10;;;;;;1934439;72;22106;-72
2022/08/01 01:00:15;;;;;;;2.60;1.20;;;25.70;84.60;;;;;;1936941;72;22182;-72
2022/08/01 01:03:06;;;;;;;1.50;1.25;;;25.60;85.50;;;;;;1900145;75;21087;-72
2022/08/01 01:06:08;;;;;;;1.80;1.27;;;25.50;86.10;;;;;;1896172;75;21124;-72
2022/08/01 01:09:10;;;;;;;1.82;1.00;;;25.40;87.00;;;;;;1905755;75;21567;-72
2022/08/01 01:12:07;;;;;;;2.02;1.10;;;25.30;87.30;;;;;;1900505;75;21123;-72
2022/08/01 01:15:04;;;;;;;1.72;1.07;;;25.20;87.90;;;;;;1884820;75;21116;-72
2022/08/01 01:17:59;;;;;;;1.52;1.17;;;25.10;89.00;;;;;;1906668;75;21101;-74
2022/08/01 01:20:53;;;;;;;1.65;1.22;;;25.10;89.10;;;;;;1905979;75;21939;-72
2022/08/01 01:26:35;;;;;;;1.70;1.20;;;25.10;89.00;;;;;;1960074;72;22717;-72
2022/08/01 01:34:51;;;;;;;2.02;1.10;;;25.10;89.40;;;;;;1932617;72;22226;-72
2022/08/01 01:37:45;;;;;;;1.62;1.10;;;25.00;90.50;;;;;;1926243;73;21591;-72
2022/08/01 01:40:39;;;;;;;1.32;1.00;;;25.00;90.20;;;;;;1928922;73;21506;-72
2022/08/01 01:43:33;;;;;;;2.50;1.15;;;25.10;90.00;;;;;;1944104;73;21062;-72
2022/08/01 01:46:27;;;;;;;3.33;1.00;;;25.10;90.00;;;;;;1924394;73;21581;-72
2022/08/01 01:49:20;;;;;;;2.08;1.10;;;25.00;90.20;;;;;;1924138;73;21123;-72
2022/08/01 01:54:52;;;;;;;1.72;1.22;;;24.90;90.70;;;;;;1938762;72;22255;-72
2022/08/01 01:57:45;;;;;;;2.52;1.05;;;24.90;90.70;;;;;;1903690;75;21059;-73
2022/08/01 02:00:37;;;;;;;1.15;0.95;;;24.90;90.90;;;;;;1884664;75;21134;-72
2022/08/01 02:03:30;;;;;;;1.35;0.90;;;24.80;91.10;;;;;;1898082;75;21145;-72
2022/08/01 02:06:23;;;;;;;4.35;1.30;;;24.80;91.20;;;;;;1908068;75;21091;-72
2022/08/01 02:09:17;;;;;;;2.12;1.05;;;24.80;91.20;;;;;;1908102;75;21167;-72
2022/08/01 02:14:48;;;;;;;1.65;1.00;;;24.70;91.40;;;;;;1929347;72;22363;-72
2022/08/01 02:17:43;;;;;;;2.95;1.20;;;24.70;91.60;;;;;;1905502;75;21638;-72
2022/08/01 02:20:37;;;;;;;1.72;1.20;;;24.70;91.80;;;;;;1908209;75;21043;-72
2022/08/01 02:23:31;;;;;;;2.00;1.00;;;24.70;91.90;;;;;;1908076;75;21074;-71
2022/08/01 02:26:24;;;;;;;2.58;1.30;;;24.70;92.10;;;;;;1902186;73;21137;-72
2022/08/01 02:34:37;;;;;;;1.20;1.10;;;24.50;93.40;;;;;;1952645;72;22252;-71
2022/08/01 02:40:11;;;;;;;1.20;1.10;;;24.40;93.90;;;;;;1946757;72;22122;-72
2022/08/01 02:43:06;;;;;;;1.52;1.10;;;24.40;94.10;;;;;;1928042;73;21135;-72
2022/08/01 02:46:00;;;;;;;1.82;1.17;;;24.20;94.70;;;;;;1920977;74;21163;-72
2022/08/01 02:48:54;;;;;;;1.40;1.12;;;24.20;95.30;;;;;;1932231;73;21168;-72
2022/08/01 02:51:47;;;;;;;1.75;1.10;;;24.00;95.90;;;;;;1932083;73;21154;-72
2022/08/01 02:54:40;;;;;;;2.67;1.05;;;23.90;96.50;;;;;;1925915;73;21094;-72
2022/08/01 03:00:16;;;;;;;1.82;1.00;;;23.90;97.10;;;;;;1943888;72;22133;-72
2022/08/01 03:03:09;;;;;;;1.92;1.10;;;23.90;97.20;;;;;;1921491;73;21066;-72
2022/08/01 03:06:02;;;;;;;1.60;1.10;;;23.90;97.30;;;;;;1913029;73;21094;-72
2022/08/01 03:08:55;;;;;;;2.98;1.20;;;23.90;97.70;;;;;;1872487;76;21098;-72
2022/08/01 03:11:49;;;;;;;1.75;1.42;;;23.90;98.00;;;;;;1934311;73;21058;-73
2022/08/01 03:20:08;;;;;;;2.30;1.10;;;23.90;98.60;;;;;;1947232;72;22194;-71
2022/08/01 03:23:08;;;;;;;3.02;2.00;;;23.90;98.70;;;;;;1918961;73;21157;-72
2022/08/01 03:26:00;;;;;;;2.08;1.47;;;23.90;98.90;;;;;;1940400;73;21228;-72
2022/08/01 03:28:54;;;;;;;2.12;1.50;;;23.90;99.10;;;;;;1929388;73;21072;-72
2022/08/01 03:31:48;;;;;;;1.75;1.37;;;23.90;99.30;;;;;;1917650;75;21133;-72
2022/08/01 03:34:40;;;;;;;1.70;1.20;;;23.90;99.70;;;;;;1926063;73;21116;-72
2022/08/01 03:37:34;;;;;;;2.12;1.35;;;23.80;99.90;;;;;;1936985;73;21171;-72
2022/08/01 03:40:28;;;;;;;2.35;1.17;;;23.80;99.90;;;;;;1935894;73;21114;-72
2022/08/01 03:43:23;;;;;;;1.40;1.30;;;23.80;99.90;;;;;;1920963;73;21104;-72
2022/08/01 03:46:22;;;;;;;2.27;1.27;;;23.70;99.90;;;;;;1927714;73;21058;-72
2022/08/01 03:49:18;;;;;;;2.45;1.30;;;23.60;99.90;;;;;;1868814;76;21067;-72
2022/08/01 03:54:51;;;;;;;2.62;1.30;;;23.60;99.90;;;;;;1948835;72;22119;-72
2022/08/01 04:00:22;;;;;;;2.12;1.37;;;23.50;99.90;;;;;;1928247;72;22302;-72
2022/08/01 04:03:14;;;;;;;1.85;1.30;;;23.50;99.90;;;;;;1857777;76;21071;-72
2022/08/01 04:06:10;;;;;;;3.62;1.40;;;23.40;99.90;;;;;;1913968;75;21058;-72
2022/08/01 04:09:00;;;;;;;1.75;1.40;;;23.10;99.90;;;;;;1905829;75;21106;-72
2022/08/01 04:11:52;;;;;;;1.55;1.35;;;23.00;99.90;;;;;;1902258;74;21164;-72
2022/08/01 04:14:43;;;;;;;2.55;1.40;;;23.00;99.90;;;;;;1894016;75;21182;-73
2022/08/01 04:20:15;;;;;;;2.58;1.80;;;23.10;99.90;;;;;;1949343;72;22293;-72
2022/08/01 04:25:48;;;;;;;1.72;1.50;;;23.00;99.90;;;;;;1927697;72;22268;-72
2022/08/01 04:28:40;;;;;;;6.78;1.90;;;22.90;99.90;;;;;;1905500;75;21150;-80
2022/08/01 04:31:33;;;;;;;3.98;1.82;;;22.90;99.90;;;;;;1888205;75;21104;-80
2022/08/01 04:34:28;;;;;;;2.67;1.60;;;22.90;99.90;;;;;;1865504;76;21165;-80
2022/08/01 04:37:20;;;;;;;2.45;1.40;;;23.00;99.90;;;;;;1893280;75;21211;-80
2022/08/01 04:40:13;;;;;;;2.27;1.72;;;22.90;99.90;;;;;;1904533;75;21522;-80
2022/08/01 04:43:05;;;;;;;1.98;1.47;;;22.80;99.90;;;;;;1906223;73;21533;-80
2022/08/01 04:45:59;;;;;;;2.40;1.40;;;22.90;99.90;;;;;;1923553;73;21362;-80
2022/08/01 04:51:57;;;;;;;1.82;1.55;;;22.90;99.90;;;;;;1884659;75;21064;-80
2022/08/01 04:54:49;;;;;;;2.58;1.55;;;22.80;99.90;;;;;;1885115;75;21055;-80
2022/08/01 04:57:43;;;;;;;3.58;1.50;;;22.80;99.90;;;;;;1886594;75;21120;-80
2022/08/01 05:00:35;;;;;;;2.80;1.70;;;22.80;99.90;;;;;;1888519;75;21050;-80
2022/08/01 05:03:42;;;;;;;1.72;1.62;;;22.90;99.90;;;;;;1890609;75;21603;-81
2022/08/01 05:09:20;;;;;;;4.05;1.60;;;23.00;99.90;;;;;;1947714;72;22119;-82
2022/08/01 05:12:12;;;;;;;2.02;1.45;;;23.00;99.90;;;;;;1917261;73;21118;-81
2022/08/01 05:15:04;;;;;;;2.62;1.47;;;23.00;99.90;;;;;;1925888;74;21051;-81
2022/08/01 05:17:56;;;;;;;1.92;1.62;;;23.10;99.90;;;;;;1917863;73;21066;-81
2022/08/01 05:20:47;;;;;;;1.80;1.50;;;23.20;99.90;;;;;;1919389;73;21097;-76
2022/08/01 05:23:45;;;;;;;2.87;1.50;;;23.10;99.90;;;;;;1948758;73;21112;-84
2022/08/01 05:26:39;;;;;;;2.30;1.50;;;23.00;99.90;;;;;;1922409;73;21600;-82
2022/08/01 05:29:31;;;;;;;2.45;1.45;;;23.10;99.90;;;;;;1917414;73;21156;-82
2022/08/01 05:32:22;;;;;;;2.92;1.50;;;23.10;99.90;;;;;;1930460;73;21106;-93
2022/08/01 05:35:14;;;;;;;1.92;1.50;;;23.10;99.90;;;;;;1918049;75;21142;-92
2022/08/01 05:38:05;;;;;;;2.40;1.82;;;23.10;99.90;;;;;;1926069;73;21096;-87
2022/08/01 05:40:58;;;;;;;1.50;1.32;;;23.10;99.90;;;;;;1917381;73;21065;-86
2022/08/01 05:43:52;;;;;;;5.70;1.50;;;23.10;99.90;;;;;;1930682;73;21039;-86
2022/08/01 05:46:43;;;;;;;2.00;1.60;;;23.30;99.90;;;;;;1923204;73;21128;-86
2022/08/01 05:54:55;;;;;;;5.65;2.15;;;23.40;99.90;;;;;;1936484;72;22211;-86
2022/08/01 05:57:46;;;;;;;4.28;1.87;;;23.40;99.90;;;;;;1894938;75;21051;-92
2022/08/01 06:00:37;;;;;;;3.15;1.82;;;23.40;99.90;;;;;;1917694;75;21048;-92
2022/08/01 06:03:33;;;;;;;3.52;1.85;;;23.50;99.90;;;;;;1917619;75;21109;-90
2022/08/01 06:06:24;;;;;;;4.37;2.05;;;23.60;99.90;;;;;;1914064;75;21161;-92
2022/08/01 06:09:16;;;;;;;3.70;1.75;;;23.70;99.90;;;;;;1885514;76;21129;-84
2022/08/01 06:12:08;;;;;;;4.72;1.98;;;23.80;99.90;;;;;;1889737;75;21055;-81
2022/08/01 06:15:00;;;;;;;3.30;1.90;;;23.90;99.90;;;;;;1884581;75;21174;-80
2022/08/01 06:17:51;;;;;;;3.90;1.80;;;23.90;99.90;;;;;;1895009;75;21098;-81
2022/08/01 06:20:43;;;;;;;2.70;1.98;;;23.90;99.90;;;;;;1898543;75;21163;-81
2022/08/01 06:26:15;;;;;;;2.95;2.02;;;24.00;99.90;;;;;;1940810;72;22173;-80
2022/08/01 06:31:47;;;;;;;2.70;1.90;;;24.00;99.90;;;;;;1934250;72;22182;-82
2022/08/01 06:34:38;;;;;;;3.22;1.90;;;24.00;99.90;;;;;;1888444;75;21170;-81
2022/08/01 06:40:13;;;;;;;3.50;1.85;;;24.00;99.90;;;;;;1927528;72;22225;-82
2022/08/01 06:45:46;;;;;;;5.92;1.82;;;24.10;99.90;;;;;;1945478;72;22329;-81
2022/08/01 06:48:39;;;;;;;2.30;1.67;;;24.10;99.90;;;;;;1935635;73;21111;-81
2022/08/01 06:51:33;;;;;;;2.45;1.70;;;24.10;99.90;;;;;;1918102;73;21142;-82
2022/08/01 06:54:24;;;;;;;3.37;1.80;;;24.10;99.90;;;;;;1916904;73;21088;-82
2022/08/01 06:57:15;;;;;;;2.40;2.20;;;24.10;99.90;;;;;;1916947;73;21063;-83
2022/08/01 07:00:12;;;;;;;4.58;2.20;;;24.10;99.90;;;;;;1917180;75;21172;-82
2022/08/01 07:03:10;;;;;;;3.87;2.10;;;24.20;99.90;;;;;;1919076;73;21054;-82
2022/08/01 07:06:02;;;;;;;3.65;1.80;;;24.30;99.90;;;;;;1919609;73;21536;-82
2022/08/01 07:08:54;;;;;;;4.97;2.45;;;24.40;99.90;;;;;;1923167;73;21157;-82
2022/08/01 07:11:47;;;;;;;4.67;1.90;;;24.50;99.90;;;;;;1917096;75;21150;-81
2022/08/01 07:14:40;;;;;;;3.55;1.98;;;24.60;99.90;;;;;;1927384;73;21094;-81
2022/08/01 07:17:33;;;;;;;2.72;1.75;;;24.70;99.90;;;;;;1926408;73;21256;-81
2022/08/01 07:25:48;;;;;;;2.58;1.80;;;24.70;99.90;;;;;;1924786;72;22165;-81
2022/08/01 07:28:41;;;;;;;3.85;1.65;;;24.70;99.90;;;;;;1891453;73;21162;-81
2022/08/01 07:31:34;;;;;;;1.70;1.42;;;24.90;99.90;;;;;;1888371;73;21102;-81
2022/08/01 07:34:26;;;;;;;2.30;1.62;;;24.90;99.90;;;;;;1891977;75;21094;-81
2022/08/01 07:39:56;;;;;;;1.90;1.70;;;25.10;99.90;;;;;;1933671;72;22553;-81
2022/08/01 07:42:59;;;;;;;3.20;1.70;;;25.20;99.90;;;;;;1901696;73;21175;-81
2022/08/01 07:45:52;;;;;;;1.92;1.60;;;25.30;99.90;;;;;;1909885;73;21140;-81
2022/08/01 07:51:44;;;;;;;2.77;1.70;;;25.30;99.90;;;;;;1891686;75;21089;-82
2022/08/01 07:54:37;;;;;;;2.70;1.62;;;25.40;99.90;;;;;;1902929;75;21114;-81
2022/08/01 08:00:16;;;;;;;2.20;2.00;;;25.50;99.90;;;;;;1944433;72;22133;-83
2022/08/01 08:03:13;;;;;;;2.15;1.50;;;25.60;99.90;;;;;;1917762;73;21126;-82
2022/08/01 08:06:05;;;;;;;2.27;1.82;;;25.60;99.90;;;;;;1903902;74;21113;-81
2022/08/01 08:09:01;;;;;;;4.50;2.00;;;25.70;99.90;;;;;;1928773;73;21495;-81
2022/08/01 08:11:53;;;;;;;2.75;2.00;;;25.70;99.90;;;;;;1925579;74;21039;-82
2022/08/01 08:14:45;;;;;;;2.50;2.10;;;25.80;99.90;;;;;;1901236;75;21192;-81
2022/08/01 08:17:36;;;;;;;4.72;1.90;;;25.90;99.90;;;;;;1908719;73;21175;-82
2022/08/01 08:20:29;;;;;;;2.85;1.85;;;26.00;99.90;;;;;;1887725;74;21117;-81
2022/08/01 08:26:38;;;;;;;3.77;2.00;;;26.20;99.90;;;;;;1897955;75;21104;-82
2022/08/01 08:29:32;;;;;;;4.28;2.00;;;26.30;99.90;;;;;;1908651;73;21083;-82
2022/08/01 08:32:23;;;;;;;2.02;1.80;;;26.30;99.90;;;;;;1893019;74;21106;-82
2022/08/01 08:35:14;;;;;;;3.33;1.60;;;26.30;99.90;;;;;;1902908;75;21490;-82
2022/08/01 08:40:48;;;;;;;3.58;1.85;;;26.30;99.90;;;;;;1941508;72;22115;-82
2022/08/01 08:43:46;;;;;;;3.30;2.00;;;26.50;99.90;;;;;;1902770;75;21187;-81
2022/08/01 08:46:42;;;;;;;3.05;2.25;;;26.50;99.90;;;;;;1913066;75;21098;-82
2022/08/01 08:49:42;;;;;;;2.98;2.02;;;26.70;99.90;;;;;;1909376;74;21049;-81
2022/08/01 08:55:33;;;;;;;2.75;1.82;;;26.90;99.90;;;;;;1947927;72;22123;-81
2022/08/01 08:58:28;;;;;;;2.70;1.85;;;26.90;99.90;;;;;;1907457;73;21079;-80
2022/08/01 09:01:20;;;;;;;1.75;1.62;;;27.00;99.90;;;;;;1920700;73;21724;-80
2022/08/01 09:04:13;;;;;;;3.45;2.00;;;27.10;99.90;;;;;;1884221;74;21167;-80
2022/08/01 09:09:49;;;;;;;3.70;1.98;;;27.20;99.90;;;;;;1936583;72;22301;-79
2022/08/01 09:12:43;;;;;;;3.80;1.80;;;27.20;99.90;;;;;;1906716;73;21228;-79
2022/08/01 09:15:42;;;;;;;4.22;1.87;;;27.10;99.70;;;;;;1888553;75;21188;-79
2022/08/01 09:18:35;;;;;;;3.02;2.10;;;27.20;99.50;;;;;;1917340;73;21133;-79
2022/08/01 09:21:27;;;;;;;2.15;1.72;;;27.20;99.40;;;;;;1913493;73;21051;-79
2022/08/01 09:24:19;;;;;;;4.15;1.95;;;27.20;99.10;;;;;;1900771;73;21047;-79
2022/08/01 09:27:19;;;;;;;2.35;1.90;;;27.20;99.00;;;;;;1890440;73;21177;-79
2022/08/01 09:30:15;;;;;;;2.40;1.70;;;27.40;98.30;;;;;;1904185;74;21745;-79
2022/08/01 09:33:08;;;;;;;3.40;1.60;;;27.40;98.10;;;;;;1902608;75;21120;-79
2022/08/01 09:36:06;;;;;;;1.62;1.52;;;27.50;98.20;;;;;;1932560;73;21107;-80
2022/08/01 09:39:00;;;;;;;2.65;1.65;;;27.60;98.20;;;;;;1891984;73;21148;-80
2022/08/01 09:41:52;;;;;;;1.60;1.50;;;27.90;97.30;;;;;;1906217;74;21143;-79
2022/08/01 09:47:28;;;;;;;2.65;1.60;;;28.10;96.80;;;;;;1970605;72;22288;-79
2022/08/01 09:50:19;;;;;;;2.12;1.55;;;28.10;96.70;;;;;;1935828;73;21098;-79
2022/08/01 09:53:11;;;;;;;2.92;1.40;;;28.20;96.30;;;;;;1924749;73;21031;-79
2022/08/01 09:56:12;;;;;;;2.85;1.62;;;28.30;96.20;;;;;;1920367;73;21566;-79
2022/08/01 09:59:03;;;;;;;1.72;1.57;;;28.40;96.30;;;;;;1921002;73;21526;-79
2022/08/01 10:01:54;;;;;;;2.37;1.47;;;28.50;95.60;;;;;;1916989;75;21120;-79
2022/08/01 10:04:51;;;;;;;3.27;1.62;;;28.60;95.20;;;;;;1927355;73;21082;-78
2022/08/01 10:07:59;;;;;;;1.60;1.50;;;28.70;95.00;;;;;;1924366;73;21099;-77
2022/08/01 10:11:09;;;;;;;2.35;1.60;;;28.80;94.90;;;;;;1918258;73;21079;-78
2022/08/01 10:14:03;;;;;;;4.70;1.52;;;29.00;94.80;;;;;;1926973;73;21047;-77
2022/08/01 10:16:56;;;;;;;3.98;1.72;;;29.20;94.80;;;;;;1917460;75;21153;-78
2022/08/01 10:19:58;;;;;;;4.03;1.50;;;29.30;93.90;;;;;;1932787;73;21071;-79
2022/08/01 10:26:11;;;;;;;3.62;1.50;;;29.30;93.40;;;;;;1917391;73;21102;-78
2022/08/01 10:29:13;;;;;;;2.75;1.57;;;29.50;93.20;;;;;;1923430;73;21156;-78
2022/08/01 10:34:52;;;;;;;3.70;1.60;;;29.60;92.90;;;;;;1933174;72;22221;-77
2022/08/01 10:40:44;;;;;;;4.70;1.45;;;29.80;92.60;;;;;;1947335;72;22154;-77
2022/08/01 10:43:52;;;;;;;2.80;1.50;;;30.00;92.60;;;;;;1929005;73;21539;-78
2022/08/01 10:46:59;;;;;;;2.10;1.30;;;29.90;92.20;;;;;;1917206;73;21178;-77
2022/08/01 10:50:08;;;;;;;4.25;1.40;;;30.00;91.80;;;;;;1931786;73;21160;-77
2022/08/01 10:53:19;;;;;;;2.35;1.20;;;30.10;91.20;;;;;;1928617;73;21184;-77
2022/08/01 10:56:12;;;;;;;4.00;1.55;;;30.10;90.80;;;;;;1918982;73;21178;-77
2022/08/01 10:59:12;;;;;;;1.95;1.15;;;30.30;90.50;;;;;;1920005;73;21070;-77
2022/08/01 11:05:13;;;;;;;2.75;1.52;;;30.50;89.50;;;;;;1940376;72;22143;-77
2022/08/01 11:08:07;;;;;;;1.27;1.00;;;30.50;89.60;;;;;;1914756;75;21107;-77
2022/08/01 11:11:04;;;;;;;3.02;1.17;;;30.70;88.60;;;;;;1903568;75;21110;-77
2022/08/01 11:14:13;;;;;;;2.85;0.95;;;30.80;87.70;;;;;;1902887;73;21075;-77
2022/08/01 11:17:35;;;;;;;1.30;1.20;;;30.80;87.40;;;;;;1906554;75;21094;-77
2022/08/01 11:20:35;;;;;;;1.67;1.10;;;30.80;85.90;;;;;;1894949;75;21082;-77
2022/08/01 11:23:37;;;;;;;2.60;1.50;;;30.90;85.50;;;;;;1903189;75;21147;-77
2022/08/01 11:26:29;;;;;;;2.60;1.17;;;31.00;84.30;;;;;;1884664;75;21109;-77
2022/08/01 11:29:20;;;;;;;1.45;1.00;;;31.10;83.60;;;;;;1894829;75;21559;-77
2022/08/01 11:32:29;;;;;;;1.87;1.20;;;31.20;83.00;;;;;;1904282;75;21046;-77
2022/08/01 11:35:23;;;;;;;2.40;1.40;;;31.20;82.10;;;;;;1890617;75;21184;-77
2022/08/01 11:38:29;;;;;;;3.35;1.67;;;31.20;82.30;;;;;;1905599;75;21040;-77
2022/08/01 11:41:30;;;;;;;6.00;1.72;;;31.40;80.30;;;;;;1885677;75;21106;-77
2022/08/01 11:44:33;;;;;;;3.50;1.30;;;31.50;80.10;;;;;;1899815;75;21120;-77
2022/08/01 11:47:52;;;;;;;4.83;1.05;;;31.60;79.80;;;;;;1905043;73;21176;-77
2022/08/01 11:50:58;;;;;;;5.37;1.30;;;31.70;78.60;;;;;;1911009;75;21148;-77
2022/08/01 11:53:58;;;;;;;1.50;0.95;;;31.60;78.20;;;;;;1884355;75;21071;-77
2022/08/01 11:59:55;;;;;;;1.50;0.95;;;31.60;78.40;;;;;;1953521;72;22141;-77
2022/08/01 12:02:49;;;;;;;1.40;1.15;;;31.60;78.30;;;;;;1906974;73;21137;-77
2022/08/01 12:05:49;;;;;;;4.67;1.57;;;31.70;76.50;;;;;;1879478;75;21133;-77
2022/08/01 12:08:47;;;;;;;2.12;1.00;;;31.70;76.50;;;;;;1889517;75;21118;-75
2022/08/01 12:11:52;;;;;;;4.62;1.37;;;31.80;75.70;;;;;;1895601;75;21082;-74
2022/08/01 12:14:58;;;;;;;1.22;1.00;;;31.80;75.20;;;;;;1885564;75;21132;-74
2022/08/01 12:17:50;;;;;;;1.12;1.00;;;31.90;74.60;;;;;;1908427;75;21177;-74
2022/08/01 12:20:49;;;;;;;1.35;1.02;;;31.90;74.00;;;;;;1890183;75;21075;-74
2022/08/01 12:23:42;;;;;;;1.65;0.93;;;32.00;73.20;;;;;;1912341;75;21059;-74
2022/08/01 12:26:43;;;;;;;1.00;0.90;;;32.10;74.30;;;;;;1901398;75;21059;-75
2022/08/01 12:29:37;;;;;;;2.92;0.90;;;32.10;73.60;;;;;;1898574;75;21043;-75
2022/08/01 12:32:47;;;;;;;1.17;0.90;;;32.10;73.20;;;;;;1895243;75;21459;-74
2022/08/01 12:35:45;;;;;;;1.77;0.90;;;32.10;73.10;;;;;;1815723;79;21267;-75
2022/08/01 12:38:36;;;;;;;1.55;1.20;;;32.20;71.10;;;;;;1790415;79;21538;-75
2022/08/01 12:41:33;;;;;;;;;;;32.40;69.90;;;;;;1828810;78;21124;-74
2022/08/01 12:44:32;;;;;;;2.40;1.10;;;32.30;70.40;;;;;;1811953;79;20209;-75
2022/08/01 12:47:37;;;;;;;1.80;1.20;;;32.20;70.00;;;;;;1824250;79;21083;-75
2022/08/01 12:50:45;;;;;;;1.10;1.00;;;32.50;70.10;;;;;;1766727;80;21139;-75
2022/08/01 12:53:51;;;;;;;2.37;1.00;;;32.60;70.00;;;;;;1827114;78;21127;-74
2022/08/01 12:57:30;;;;;;;1.82;0.95;;;32.70;69.50;;;;;;1765852;80;21602;-74
2022/08/01 13:00:24;;;;;;;3.17;1.15;;;32.90;68.70;;;;;;1782700;79;21173;-74
2022/08/01 13:03:16;;;;;;;3.20;1.00;;;32.80;68.60;;;;;;1811263;78;21184;-74
2022/08/01 13:06:16;;;;;;;1.02;0.90;;;32.90;68.10;;;;;;1823726;79;21130;-74
2022/08/01 13:09:22;;;;;;;1.67;1.00;;;32.90;68.10;;;;;;1824004;79;21139;-75
2022/08/01 13:12:22;;;;;;;2.72;0.98;;;33.00;67.90;;;;;;1823970;79;21149;-75
2022/08/01 13:15:35;;;;;;;2.02;1.00;;;32.90;67.40;;;;;;1823691;79;21648;-74
2022/08/01 13:18:47;;;;;;;1.32;0.98;;;32.80;66.80;;;;;;1789170;80;21159;-75
2022/08/01 13:21:58;;;;;;;2.65;0.82;;;32.80;66.40;;;;;;1822682;77;21123;-74
2022/08/01 13:25:17;;;;;;;1.05;0.80;;;32.90;65.60;;;;;;1816643;79;21079;-74
2022/08/01 13:28:21;;;;;;;1.85;1.00;;;33.00;64.10;;;;;;1825753;77;21127;-74
2022/08/01 13:31:12;;;;;;;1.30;0.85;;;33.10;63.70;;;;;;1799103;79;21116;-74
2022/08/01 13:34:10;;;;;;;1.07;0.93;;;33.00;62.70;;;;;;1816905;79;21171;-74
2022/08/01 13:37:02;;;;;;;3.80;1.10;;;33.00;62.50;;;;;;1813246;79;21211;-74
2022/08/01 13:39:57;;;;;;;;;;;33.10;62.40;;;;;;1817246;79;21488;-75
2022/08/01 13:42:56;;;;;;;1.17;0.90;;;33.10;61.50;;;;;;1812334;79;20129;-76
2022/08/01 13:46:07;;;;;;;1.32;0.90;;;33.30;61.20;;;;;;1815703;79;21071;-75
2022/08/01 13:49:18;;;;;;;1.17;0.80;;;33.50;60.30;;;;;;1799759;79;21133;-76
2022/08/01 13:52:33;;;;;;;1.27;0.80;;;33.60;59.90;;;;;;1800089;79;21063;-75
2022/08/01 13:55:24;;;;;;;1.70;0.78;;;33.60;59.00;;;;;;1802495;79;21186;-75
2022/08/01 13:58:17;;;;;;;3.30;0.95;;;33.70;58.50;;;;;;1822714;77;21607;-75
2022/08/01 14:01:20;;;;;;;1.75;0.80;;;33.70;57.90;;;;;;1809882;79;21139;-75
2022/08/01 14:04:21;;;;;;;2.27;0.80;;;34.10;57.40;;;;;;1811996;79;21225;-75
2022/08/01 14:07:20;;;;;;;3.20;0.80;;;34.20;56.50;;;;;;1809326;77;21166;-75
2022/08/01 14:10:25;;;;;;;1.30;0.70;;;34.50;56.10;;;;;;1815414;78;21503;-76
2022/08/01 14:13:24;;;;;;;1.20;0.80;;;34.70;55.30;;;;;;1821339;77;21536;-76
2022/08/01 14:16:39;;;;;;;3.47;0.80;;;35.10;55.00;;;;;;1808111;77;21104;-76
2022/08/01 14:19:56;;;;;;;1.60;0.70;;;35.20;54.40;;;;;;1802948;79;21616;-76
2022/08/01 14:22:55;;;;;;;2.92;0.80;;;35.30;54.60;;;;;;1809424;78;21060;-76
2022/08/01 14:26:03;;;;;;;6.05;0.75;;;35.70;53.80;;;;;;1809899;79;21169;-75
2022/08/01 14:29:02;;;;;;;1.30;0.80;;;35.90;53.30;;;;;;1812523;79;21132;-75
2022/08/01 14:32:02;;;;;;;3.33;0.80;;;36.20;52.50;;;;;;1812986;79;21242;-76
2022/08/01 14:34:53;;;;;;;1.55;0.68;;;35.90;52.30;;;;;;1818364;77;21177;-76
2022/08/01 14:38:01;;;;;;;2.92;0.82;;;36.10;52.20;;;;;;1814787;77;21190;-75
2022/08/01 14:41:06;;;;;;;0.95;0.70;;;36.20;52.30;;;;;;1799010;77;21132;-76
2022/08/01 14:44:28;;;;;;;2.62;0.88;;;36.30;52.40;;;;;;1818960;77;21186;-75
2022/08/01 14:47:27;;;;;;;2.47;0.70;;;36.40;51.60;;;;;;1797579;79;21127;-75
2022/08/01 14:50:26;;;;;;;0.72;0.70;;;36.40;51.30;;;;;;1814834;79;21583;-75
2022/08/01 14:53:19;;;;;;;0.70;0.70;;;36.70;50.80;;;;;;1814611;79;21124;-75
2022/08/01 14:56:24;;;;;;;2.83;0.90;;;36.60;50.70;;;;;;1829676;77;21082;-75
2022/08/01 14:59:16;;;;;;;1.50;0.70;;;36.80;50.40;;;;;;1808401;78;21121;-75
2022/08/01 15:02:22;;;;;;;1.27;0.70;;;37.10;50.50;;;;;;1877755;75;21615;-75
2022/08/01 15:05:20;;;;;;;2.35;0.80;;;37.20;50.00;;;;;;1859997;76;21115;-75
2022/08/01 15:08:20;;;;;;;1.70;1.07;;;37.20;49.70;;;;;;1876058;75;21651;-75
2022/08/01 15:11:18;;;;;;;1.82;0.90;;;37.40;48.90;;;;;;1873738;76;21127;-75
2022/08/01 15:17:18;;;;;;;1.77;0.60;;;37.70;47.70;;;;;;1925103;72;22299;-75
2022/08/01 15:20:10;;;;;;;0.95;0.60;;;37.90;47.30;;;;;;1903597;73;21146;-76
2022/08/01 15:23:15;;;;;;;1.77;0.62;;;38.10;46.50;;;;;;1889909;74;21109;-76
2022/08/01 15:26:13;;;;;;;1.02;0.60;;;38.10;46.20;;;;;;1915104;75;21093;-75
2022/08/01 15:29:23;;;;;;;1.25;0.60;;;38.30;45.80;;;;;;1915185;75;21097;-75
2022/08/01 15:32:23;;;;;;;0.82;0.70;;;38.20;45.40;;;;;;1911220;74;21051;-75
2022/08/01 15:35:20;;;;;;;1.72;0.70;;;37.70;45.30;;;;;;1912227;74;21113;-75
2022/08/01 15:38:19;;;;;;;1.07;0.65;;;37.60;45.10;;;;;;1873311;76;21086;-75
2022/08/01 15:41:10;;;;;;;0.60;0.60;;;38.00;45.10;;;;;;1903223;75;21062;-76
2022/08/01 15:44:08;;;;;;;1.30;0.47;;;37.90;44.20;;;;;;1883710;75;21066;-76
2022/08/01 15:47:10;;;;;;;1.65;0.70;;;37.90;44.40;;;;;;1911659;74;21055;-75
2022/08/01 15:50:22;;;;;;;1.35;0.78;;;38.00;44.10;;;;;;1876500;76;21120;-76
2022/08/01 15:53:19;;;;;;;1.40;0.70;;;38.10;43.80;;;;;;1893922;74;21189;-75
2022/08/01 15:56:17;;;;;;;1.17;0.60;;;38.10;43.40;;;;;;1911578;75;21084;-75
2022/08/01 15:59:15;;;;;;;1.30;0.72;;;38.20;43.80;;;;;;1909090;75;21066;-75
2022/08/01 16:02:14;;;;;;;1.95;0.75;;;38.30;43.80;;;;;;1861070;75;21110;-75
2022/08/01 16:05:25;;;;;;;0.80;0.60;;;38.80;43.20;;;;;;1889558;75;21171;-76
2022/08/01 16:08:36;;;;;;;2.40;0.60;;;38.20;43.00;;;;;;1900672;75;21106;-75
2022/08/01 16:14:25;;;;;;;1.50;0.68;;;38.60;42.60;;;;;;1944756;72;22605;-75
2022/08/01 16:20:15;;;;;;;2.47;0.55;;;38.40;42.30;;;;;;1957434;72;22078;-75
2022/08/01 16:23:12;;;;;;;0.75;0.60;;;37.90;42.40;;;;;;1929872;73;21086;-75
2022/08/01 16:26:13;;;;;;;1.25;0.60;;;37.90;42.60;;;;;;1927466;73;21107;-76
2022/08/01 16:29:19;;;;;;;2.02;0.70;;;38.40;42.10;;;;;;1921658;74;21125;-75
2022/08/01 16:32:23;;;;;;;0.72;0.60;;;38.20;42.00;;;;;;1931047;73;21075;-76
2022/08/01 16:35:30;;;;;;;0.70;0.50;;;38.10;41.60;;;;;;1927170;73;21118;-75
2022/08/01 16:38:49;;;;;;;0.82;0.60;;;37.60;42.10;;;;;;1942115;73;21122;-75
2022/08/01 16:44:33;;;;;;;0.62;0.50;;;37.30;42.40;;;;;;1936764;72;22672;-74
2022/08/01 16:47:38;;;;;;;1.20;0.68;;;36.50;43.50;;;;;;1897486;75;21101;-76
2022/08/01 16:50:43;;;;;;;0.60;0.60;;;35.20;44.30;;;;;;1897771;75;21070;-75
2022/08/01 16:53:42;;;;;;;2.27;0.50;;;34.50;45.30;;;;;;1897472;73;21118;-75
2022/08/01 16:59:25;;;;;;;2.20;0.50;;;35.40;44.50;;;;;;1947109;72;22604;-75
2022/08/01 17:02:17;;;;;;;0.50;0.50;;;35.20;44.30;;;;;;1932232;73;21067;-76
2022/08/01 17:05:13;;;;;;;;;;;35.10;44.80;;;;;;1925828;73;21537;-76
2022/08/01 17:08:11;;;;;;;2.15;0.62;;;34.50;45.30;;;;;;1932635;73;20225;-75
2022/08/01 17:11:10;;;;;;;1.02;0.50;;;34.00;46.10;;;;;;1917400;75;21160;-75
2022/08/01 17:14:14;;;;;;;2.17;0.60;;;33.70;46.70;;;;;;1934892;73;21498;-75
2022/08/01 17:17:05;;;;;;;1.77;0.57;;;33.40;47.20;;;;;;1941520;73;21101;-75
2022/08/01 17:20:04;;;;;;;1.27;0.78;;;33.10;47.70;;;;;;1926584;73;21047;-76
2022/08/01 17:25:33;;;;;;;0.80;0.50;;;33.50;47.80;;;;;;1937983;72;22137;-75
2022/08/01 17:28:31;;;;;;;1.80;0.57;;;33.70;47.60;;;;;;1892065;75;21088;-75
2022/08/01 17:34:21;;;;;;;3.90;0.50;;;33.20;48.60;;;;;;1954402;72;22090;-77
2022/08/01 17:39:51;;;;;;;1.37;0.53;;;32.80;49.40;;;;;;1961692;72;22213;-75